createdAt,value
2017-12-29T00:00:53.943Z,2.00
2017-12-29T00:03:22.184Z,2.10
2017-12-29T00:05:50.450Z,2.10
2017-12-29T00:08:19.473Z,2.10
2017-12-29T00:10:47.694Z,2.20
2017-12-29T00:13:16.758Z,2.20
2017-12-29T00:15:45.053Z,2.20
2017-12-29T00:18:13.343Z,2.30
2017-12-29T00:20:41.636Z,2.30
2017-12-29T00:23:10.688Z,2.30
2017-12-29T00:25:39.724Z,2.40
2017-12-29T00:28:08.744Z,2.40
2017-12-29T00:30:36.980Z,2.40
2017-12-29T00:33:06.118Z,2.40
2017-12-29T00:35:34.394Z,2.40
2017-12-29T00:38:02.639Z,2.30
2017-12-29T00:40:32.080Z,2.30
2017-12-29T00:43:00.376Z,2.30
2017-12-29T00:45:28.619Z,2.30
2017-12-29T00:47:57.627Z,2.30
2017-12-29T00:50:26.579Z,2.30
2017-12-29T00:52:55.459Z,2.30
2017-12-29T00:55:23.925Z,2.30
2017-12-29T00:57:52.184Z,2.20
2017-12-29T01:00:20.470Z,2.30
2017-12-29T01:02:48.696Z,2.30
2017-12-29T01:05:17.759Z,2.40
2017-12-29T01:07:46.033Z,2.30
2017-12-29T01:10:14.331Z,2.30
2017-12-29T01:12:42.564Z,2.30
2017-12-29T01:15:10.824Z,2.40
2017-12-29T01:17:39.059Z,2.30
2017-12-29T01:20:07.330Z,2.40
2017-12-29T01:22:35.615Z,2.40
2017-12-29T01:25:04.664Z,2.30
2017-12-29T01:27:33.199Z,2.30
2017-12-29T01:30:01.425Z,2.30
2017-12-29T01:32:29.724Z,2.30
2017-12-29T01:34:57.979Z,2.20
2017-12-29T01:37:26.257Z,2.20
2017-12-29T01:39:54.501Z,2.20
2017-12-29T01:42:22.775Z,2.30
2017-12-29T01:44:51.840Z,2.30
2017-12-29T01:47:20.125Z,2.20
2017-12-29T01:49:48.371Z,2.20
2017-12-29T01:52:16.604Z,2.20
2017-12-29T01:54:44.885Z,2.20
2017-12-29T01:57:13.881Z,2.20
2017-12-29T01:59:42.120Z,2.20
2017-12-29T02:02:10.361Z,2.30
2017-12-29T02:04:39.372Z,2.30
2017-12-29T02:07:08.570Z,2.30
2017-12-29T02:09:36.794Z,2.30
2017-12-29T02:12:05.029Z,2.30
2017-12-29T02:14:33.334Z,2.30
2017-12-29T02:17:02.390Z,2.30
2017-12-29T02:19:30.667Z,2.30
2017-12-29T02:21:58.934Z,2.30
2017-12-29T02:24:27.257Z,2.30
2017-12-29T02:26:56.257Z,2.30
2017-12-29T02:29:25.258Z,2.10
2017-12-29T02:31:54.325Z,2.20
2017-12-29T02:34:22.583Z,2.20
2017-12-29T02:36:50.829Z,2.30
2017-12-29T02:39:19.067Z,2.20
2017-12-29T02:41:48.083Z,2.20
2017-12-29T02:44:16.347Z,2.20
2017-12-29T02:46:45.352Z,2.00
2017-12-29T02:49:13.609Z,2.00
2017-12-29T02:51:42.605Z,2.10
2017-12-29T02:54:11.645Z,2.10
2017-12-29T02:56:40.576Z,2.10
2017-12-29T02:59:09.592Z,2.10
2017-12-29T03:01:38.595Z,2.10
2017-12-29T03:04:06.844Z,2.10
2017-12-29T03:06:35.122Z,2.00
2017-12-29T03:09:03.378Z,2.00
2017-12-29T03:11:31.611Z,2.00
2017-12-29T03:13:59.862Z,2.10
2017-12-29T03:16:28.894Z,2.20
2017-12-29T03:18:57.141Z,2.20
2017-12-29T03:21:26.192Z,2.10
2017-12-29T03:23:54.491Z,2.10
2017-12-29T03:26:22.711Z,2.10
2017-12-29T03:28:50.986Z,2.20
2017-12-29T03:31:19.237Z,2.10
2017-12-29T03:33:48.285Z,2.20
2017-12-29T03:36:16.524Z,2.20
2017-12-29T03:38:44.759Z,2.30
2017-12-29T03:41:13.057Z,2.30
2017-12-29T03:43:42.104Z,2.20
2017-12-29T03:46:10.381Z,2.10
2017-12-29T03:48:38.656Z,2.20
2017-12-29T03:51:06.884Z,2.20
2017-12-29T03:53:35.943Z,2.20
2017-12-29T03:56:04.215Z,2.20
2017-12-29T03:58:32.521Z,2.20
2017-12-29T04:01:01.553Z,2.30
2017-12-29T04:03:30.578Z,2.20
2017-12-29T04:05:58.857Z,2.20
2017-12-29T04:08:27.135Z,2.10
2017-12-29T04:10:55.423Z,2.10
2017-12-29T04:13:23.656Z,2.10
2017-12-29T04:15:51.925Z,2.10
2017-12-29T04:18:20.181Z,2.10
2017-12-29T04:20:48.474Z,2.10
2017-12-29T04:23:17.535Z,2.20
2017-12-29T04:25:45.801Z,2.10
2017-12-29T04:28:14.040Z,2.10
2017-12-29T04:30:42.333Z,2.10
2017-12-29T04:33:10.599Z,2.00
2017-12-29T04:35:38.872Z,2.00
2017-12-29T04:38:07.103Z,2.00
2017-12-29T04:40:35.400Z,2.00
2017-12-29T04:43:03.621Z,2.10
2017-12-29T04:45:31.922Z,2.10
2017-12-29T04:48:00.152Z,2.20
2017-12-29T04:50:28.468Z,2.20
2017-12-29T04:52:57.225Z,2.20
2017-12-29T04:55:25.460Z,2.10
2017-12-29T04:57:53.749Z,2.00
2017-12-29T05:00:22.795Z,2.00
2017-12-29T05:02:51.094Z,2.00
2017-12-29T05:05:19.329Z,2.10
2017-12-29T05:07:47.561Z,2.00
2017-12-29T05:10:15.852Z,2.00
2017-12-29T05:12:44.853Z,2.00
2017-12-29T05:15:13.914Z,2.00
2017-12-29T05:17:42.188Z,2.00
2017-12-29T05:20:10.476Z,2.00
2017-12-29T05:22:38.702Z,2.00
2017-12-29T05:25:08.418Z,2.00
2017-12-29T05:27:36.705Z,2.00
2017-12-29T05:30:04.932Z,2.00
2017-12-29T05:32:33.947Z,2.00
2017-12-29T05:35:02.183Z,1.90
2017-12-29T05:37:30.433Z,2.00
2017-12-29T05:39:58.672Z,2.10
2017-12-29T05:42:26.970Z,2.10
2017-12-29T05:44:55.239Z,2.20
2017-12-29T05:47:23.509Z,2.20
2017-12-29T05:49:51.759Z,2.20
2017-12-29T05:52:20.777Z,2.20
2017-12-29T05:54:49.824Z,2.10
2017-12-29T05:57:19.323Z,2.10
2017-12-29T05:59:47.579Z,2.10
2017-12-29T06:02:15.810Z,2.20
2017-12-29T06:04:44.812Z,2.20
2017-12-29T06:07:13.836Z,2.10
2017-12-29T06:09:42.113Z,2.10
2017-12-29T06:12:10.404Z,2.10
2017-12-29T06:14:38.631Z,2.10
2017-12-29T06:17:07.665Z,2.20
2017-12-29T06:19:36.756Z,2.20
2017-12-29T06:22:05.067Z,2.20
2017-12-29T06:24:33.319Z,2.20
2017-12-29T06:27:01.863Z,2.20
2017-12-29T06:29:30.867Z,2.20
2017-12-29T06:31:59.097Z,2.20
2017-12-29T06:34:28.180Z,2.10
2017-12-29T06:36:56.420Z,2.10
2017-12-29T06:39:24.706Z,2.10
2017-12-29T06:41:52.947Z,2.10
2017-12-29T06:44:21.986Z,2.10
2017-12-29T06:46:50.234Z,2.10
2017-12-29T06:49:19.236Z,2.10
2017-12-29T06:51:47.509Z,2.10
2017-12-29T06:54:16.502Z,1.90
2017-12-29T06:56:44.779Z,1.90
2017-12-29T06:59:13.775Z,2.00
2017-12-29T07:01:42.021Z,2.00
2017-12-29T07:04:10.298Z,2.10
2017-12-29T07:06:38.523Z,2.10
2017-12-29T07:09:07.064Z,2.10
2017-12-29T07:11:35.303Z,2.10
2017-12-29T07:14:03.582Z,2.10
2017-12-29T07:16:31.877Z,2.10
2017-12-29T07:19:00.151Z,2.20
2017-12-29T07:21:28.536Z,2.10
2017-12-29T07:23:56.768Z,2.10
2017-12-29T07:26:25.036Z,2.10
2017-12-29T07:28:54.041Z,2.00
2017-12-29T07:31:22.315Z,2.00
2017-12-29T07:33:50.556Z,1.90
2017-12-29T07:36:19.601Z,2.00
2017-12-29T07:38:47.889Z,2.00
2017-12-29T07:41:16.110Z,2.00
2017-12-29T07:43:45.123Z,2.00
2017-12-29T07:46:13.398Z,2.00
2017-12-29T07:48:42.419Z,2.10
2017-12-29T07:51:12.123Z,2.10
2017-12-29T07:53:40.352Z,2.10
2017-12-29T07:56:09.434Z,2.10
2017-12-29T07:58:38.481Z,1.90
2017-12-29T08:01:06.719Z,1.90
2017-12-29T08:03:36.839Z,1.70
2017-12-29T08:06:05.363Z,1.70
2017-12-29T08:08:33.602Z,1.80
2017-12-29T08:11:01.890Z,1.80
2017-12-29T08:13:30.159Z,1.80
2017-12-29T08:15:59.442Z,1.80
2017-12-29T08:18:28.142Z,1.70
2017-12-29T08:20:56.423Z,1.80
2017-12-29T08:23:24.699Z,1.70
2017-12-29T08:25:52.928Z,1.60
2017-12-29T08:28:21.224Z,1.50
2017-12-29T08:30:49.477Z,1.60
2017-12-29T08:33:17.766Z,1.50
2017-12-29T08:35:46.034Z,1.50
2017-12-29T08:38:14.279Z,1.60
2017-12-29T08:40:42.550Z,1.60
2017-12-29T08:43:11.583Z,1.70
2017-12-29T08:45:39.858Z,1.60
2017-12-29T08:48:09.140Z,1.70
2017-12-29T08:50:38.184Z,1.80
2017-12-29T08:53:07.196Z,1.80
2017-12-29T08:55:35.464Z,1.90
2017-12-29T08:58:03.688Z,1.90
2017-12-29T09:00:31.927Z,1.90
2017-12-29T09:03:00.168Z,1.90
2017-12-29T09:05:29.322Z,1.90
2017-12-29T09:07:58.352Z,1.80
2017-12-29T09:10:26.584Z,1.80
2017-12-29T09:12:55.688Z,1.90
2017-12-29T09:15:25.627Z,1.80
2017-12-29T09:17:53.898Z,1.90
2017-12-29T09:20:23.026Z,1.90
2017-12-29T09:22:51.286Z,2.00
2017-12-29T09:25:19.503Z,2.10
2017-12-29T09:27:47.741Z,2.20
2017-12-29T09:30:16.038Z,2.20
2017-12-29T09:32:44.257Z,2.20
2017-12-29T09:35:13.349Z,2.20
2017-12-29T09:37:42.344Z,2.20
2017-12-29T09:40:11.391Z,2.20
2017-12-29T09:42:39.663Z,2.20
2017-12-29T09:45:07.936Z,2.20
2017-12-29T09:47:36.180Z,2.30
2017-12-29T09:50:05.268Z,2.40
2017-12-29T09:52:34.314Z,2.50
2017-12-29T09:55:02.584Z,2.50
2017-12-29T09:57:30.874Z,2.60
2017-12-29T09:59:59.104Z,2.60
2017-12-29T10:02:27.356Z,2.70
2017-12-29T10:04:56.414Z,2.70
2017-12-29T10:07:24.646Z,2.70
2017-12-29T10:09:53.652Z,2.80
2017-12-29T10:12:21.928Z,2.80
2017-12-29T10:14:50.169Z,3.00
2017-12-29T10:17:18.731Z,3.20
2017-12-29T10:19:47.620Z,3.40
2017-12-29T10:22:15.880Z,3.50
2017-12-29T10:24:44.157Z,3.50
2017-12-29T10:27:12.402Z,3.60
2017-12-29T10:29:40.680Z,3.70
2017-12-29T10:32:09.733Z,3.90
2017-12-29T10:34:38.010Z,3.90
2017-12-29T10:37:06.285Z,4.10
2017-12-29T10:39:34.521Z,4.30
2017-12-29T10:42:02.788Z,4.50
2017-12-29T10:44:31.037Z,4.60
2017-12-29T10:47:00.059Z,4.90
2017-12-29T10:49:28.352Z,4.90
2017-12-29T10:51:56.672Z,5.00
2017-12-29T10:54:24.996Z,5.20
2017-12-29T10:56:53.264Z,5.40
2017-12-29T10:59:21.567Z,5.60
2017-12-29T11:01:49.800Z,5.80
2017-12-29T11:04:18.895Z,5.90
2017-12-29T11:06:48.861Z,5.90
2017-12-29T11:09:17.139Z,5.90
2017-12-29T11:11:45.574Z,6.10
2017-12-29T11:14:14.630Z,6.60
2017-12-29T11:16:42.914Z,6.60
2017-12-29T11:19:11.135Z,6.80
2017-12-29T11:21:39.436Z,7.00
2017-12-29T11:24:07.728Z,7.10
2017-12-29T11:26:35.969Z,7.00
2017-12-29T11:29:04.241Z,7.10
2017-12-29T11:31:33.260Z,7.00
2017-12-29T11:34:03.128Z,7.00
2017-12-29T11:36:31.372Z,7.00
2017-12-29T11:38:59.963Z,7.10
2017-12-29T11:41:28.282Z,7.10
2017-12-29T11:43:57.388Z,7.30
2017-12-29T11:46:26.400Z,7.50
2017-12-29T11:48:54.951Z,7.50
2017-12-29T11:51:23.956Z,7.10
2017-12-29T11:53:52.795Z,7.10
2017-12-29T11:56:21.027Z,6.90
2017-12-29T11:58:49.286Z,6.80
2017-12-29T12:01:18.329Z,6.50
2017-12-29T12:03:46.597Z,6.50
2017-12-29T12:06:14.867Z,6.30
2017-12-29T12:08:44.962Z,6.20
2017-12-29T12:11:14.009Z,5.80
2017-12-29T12:13:43.178Z,5.80
2017-12-29T12:16:11.467Z,5.70
2017-12-29T12:18:39.743Z,5.80
2017-12-29T12:21:08.034Z,5.90
2017-12-29T12:23:36.309Z,6.10
2017-12-29T12:26:04.574Z,6.20
2017-12-29T12:28:32.858Z,6.30
2017-12-29T12:31:01.133Z,6.50
2017-12-29T12:33:29.417Z,6.50
2017-12-29T12:35:57.700Z,6.50
2017-12-29T12:38:25.998Z,6.40
2017-12-29T12:40:54.273Z,6.50
2017-12-29T12:43:22.545Z,7.10
2017-12-29T12:45:50.835Z,7.40
2017-12-29T12:48:20.156Z,7.80
2017-12-29T12:50:49.216Z,8.60
2017-12-29T12:53:17.456Z,8.60
2017-12-29T12:55:45.733Z,9.50
2017-12-29T12:58:14.016Z,10.00
2017-12-29T13:00:42.253Z,11.50
2017-12-29T13:03:11.546Z,13.20
2017-12-29T13:05:40.409Z,13.20
2017-12-29T13:08:08.722Z,13.80
2017-12-29T13:10:37.608Z,14.30
2017-12-29T13:13:06.622Z,14.90
2017-12-29T13:15:36.347Z,15.50
2017-12-29T13:18:04.596Z,15.40
2017-12-29T13:20:34.833Z,15.40
2017-12-29T13:23:04.322Z,15.10
2017-12-29T13:25:33.414Z,15.00
2017-12-29T13:28:01.707Z,14.60
2017-12-29T13:30:30.720Z,13.80
2017-12-29T13:32:58.976Z,13.80
2017-12-29T13:35:27.986Z,13.30
2017-12-29T13:37:56.239Z,13.30
2017-12-29T13:40:25.340Z,12.90
2017-12-29T13:42:55.184Z,12.90
2017-12-29T13:45:23.426Z,12.40
2017-12-29T13:47:53.034Z,11.30
2017-12-29T13:50:22.052Z,10.80
2017-12-29T13:52:50.910Z,10.70
2017-12-29T13:55:19.950Z,10.00
2017-12-29T13:57:49.091Z,9.60
2017-12-29T14:00:18.311Z,9.00
2017-12-29T14:02:47.286Z,8.70
2017-12-29T14:05:15.524Z,8.30
2017-12-29T14:07:43.808Z,7.90
2017-12-29T14:10:12.103Z,7.60
2017-12-29T14:12:41.294Z,7.40
2017-12-29T14:15:10.165Z,7.20
2017-12-29T14:17:39.184Z,7.00
2017-12-29T14:20:07.487Z,6.70
2017-12-29T14:22:37.235Z,6.50
2017-12-29T14:25:05.464Z,6.30
2017-12-29T14:27:34.495Z,6.00
2017-12-29T14:30:03.478Z,5.60
2017-12-29T14:32:32.541Z,5.50
2017-12-29T14:35:01.515Z,5.50
2017-12-29T14:37:29.806Z,5.40
2017-12-29T14:39:58.039Z,5.40
2017-12-29T14:42:26.289Z,5.30
2017-12-29T14:44:55.337Z,5.10
2017-12-29T14:47:23.592Z,5.10
2017-12-29T14:49:51.871Z,5.10
2017-12-29T14:52:20.114Z,4.90
2017-12-29T14:54:49.138Z,4.70
2017-12-29T14:57:17.407Z,4.70
2017-12-29T14:59:46.428Z,4.60
2017-12-29T15:02:15.500Z,4.60
2017-12-29T15:04:43.776Z,4.60
2017-12-29T15:07:12.335Z,4.50
2017-12-29T15:09:40.659Z,4.50
2017-12-29T15:12:08.927Z,4.40
2017-12-29T15:14:37.171Z,4.30
2017-12-29T15:17:05.474Z,4.20
2017-12-29T15:19:33.720Z,4.20
2017-12-29T15:22:02.735Z,4.00
2017-12-29T15:24:30.965Z,4.10
2017-12-29T15:26:59.259Z,4.00
2017-12-29T15:29:27.520Z,4.00
2017-12-29T15:31:56.344Z,3.90
2017-12-29T15:34:25.409Z,3.80
2017-12-29T15:36:53.688Z,3.80
2017-12-29T15:39:21.957Z,3.70
2017-12-29T15:41:50.245Z,3.70
2017-12-29T15:44:19.178Z,3.50
2017-12-29T15:46:48.913Z,3.30
2017-12-29T15:49:17.141Z,3.30
2017-12-29T15:51:46.145Z,3.40
2017-12-29T15:54:15.204Z,3.30
2017-12-29T15:56:44.253Z,3.30
2017-12-29T15:59:12.594Z,3.30
2017-12-29T16:01:45.611Z,3.20
2017-12-29T16:04:13.918Z,3.10
2017-12-29T16:06:42.193Z,3.00
2017-12-29T16:09:10.414Z,2.90
2017-12-29T16:11:38.693Z,2.90
2017-12-29T16:14:06.959Z,2.80
2017-12-29T16:16:35.995Z,2.70
2017-12-29T16:19:04.237Z,2.70
2017-12-29T16:21:32.526Z,2.60
2017-12-29T16:24:00.761Z,2.60
2017-12-29T16:26:29.067Z,2.50
2017-12-29T16:28:57.344Z,2.50
2017-12-29T16:31:25.611Z,2.50
2017-12-29T16:33:53.859Z,2.50
2017-12-29T16:36:22.108Z,2.50
2017-12-29T16:38:50.378Z,2.60
2017-12-29T16:41:19.480Z,2.60
2017-12-29T16:43:47.783Z,2.60
2017-12-29T16:46:16.025Z,2.50
2017-12-29T16:48:44.289Z,2.50
2017-12-29T16:51:12.591Z,2.50
2017-12-29T16:53:40.872Z,2.50
2017-12-29T16:56:09.137Z,2.50
2017-12-29T16:58:38.139Z,2.50
2017-12-29T17:01:06.386Z,2.40
2017-12-29T17:03:34.750Z,2.30
2017-12-29T17:06:03.017Z,2.30
2017-12-29T17:08:31.236Z,2.30
2017-12-29T17:11:00.298Z,2.20
2017-12-29T17:13:28.562Z,2.20
2017-12-29T17:15:56.812Z,2.30
2017-12-29T17:18:26.088Z,2.20
2017-12-29T17:20:54.363Z,2.10
2017-12-29T17:23:24.169Z,2.00
2017-12-29T17:25:53.967Z,2.00
2017-12-29T17:28:22.280Z,2.00
2017-12-29T17:30:50.558Z,2.10
2017-12-29T17:33:19.588Z,2.10
2017-12-29T17:35:47.840Z,2.10
2017-12-29T17:38:16.805Z,2.10
2017-12-29T17:40:45.836Z,2.10
2017-12-29T17:43:14.120Z,2.10
2017-12-29T17:45:42.430Z,2.10
2017-12-29T17:48:10.722Z,2.10
2017-12-29T17:50:38.983Z,2.10
2017-12-29T17:53:07.324Z,2.10
2017-12-29T17:55:35.548Z,2.10
2017-12-29T17:58:03.779Z,2.10
2017-12-29T18:00:32.084Z,2.20
2017-12-29T18:03:00.358Z,2.10
2017-12-29T18:05:29.618Z,2.10
2017-12-29T18:07:58.547Z,2.10
2017-12-29T18:10:27.398Z,2.10
2017-12-29T18:12:56.575Z,2.10
2017-12-29T18:15:25.618Z,2.10
2017-12-29T18:17:53.888Z,2.10
2017-12-29T18:20:22.163Z,2.00
2017-12-29T18:22:50.438Z,2.00
2017-12-29T18:25:18.696Z,2.00
2017-12-29T18:27:46.943Z,2.10
2017-12-29T18:30:15.200Z,2.10
2017-12-29T18:32:43.423Z,2.10
2017-12-29T18:35:11.734Z,2.10
2017-12-29T18:37:39.963Z,2.00
2017-12-29T18:40:09.015Z,2.00
2017-12-29T18:42:38.181Z,2.00
2017-12-29T18:45:06.450Z,2.10
2017-12-29T18:47:34.867Z,2.20
2017-12-29T18:50:03.146Z,2.20
2017-12-29T18:52:31.450Z,2.20
2017-12-29T18:55:00.565Z,2.10
2017-12-29T18:57:29.612Z,2.20
2017-12-29T18:59:57.849Z,2.10
2017-12-29T19:02:26.094Z,2.20
2017-12-29T19:04:54.427Z,2.30
2017-12-29T19:07:22.698Z,2.20
2017-12-29T19:09:50.977Z,2.10
2017-12-29T19:12:20.088Z,2.00
2017-12-29T19:14:48.359Z,1.90
2017-12-29T19:17:16.623Z,1.90
2017-12-29T19:19:46.549Z,1.70
2017-12-29T19:22:14.800Z,1.70
2017-12-29T19:24:43.046Z,1.70
2017-12-29T19:27:11.355Z,1.60
2017-12-29T19:29:39.585Z,1.50
2017-12-29T19:32:07.822Z,1.50
2017-12-29T19:34:36.159Z,1.60
2017-12-29T19:37:05.328Z,1.60
2017-12-29T19:39:33.625Z,1.50
2017-12-29T19:42:01.885Z,1.50
2017-12-29T19:44:30.183Z,1.50
2017-12-29T19:46:59.543Z,1.50
2017-12-29T19:49:28.584Z,1.50
2017-12-29T19:51:56.894Z,1.40
2017-12-29T19:54:26.835Z,1.30
2017-12-29T19:56:55.136Z,1.30
2017-12-29T19:59:23.398Z,1.40
2017-12-29T20:01:51.667Z,1.40
2017-12-29T20:04:20.835Z,1.30
2017-12-29T20:06:49.963Z,1.40
2017-12-29T20:09:18.218Z,1.40
2017-12-29T20:11:46.483Z,1.50
2017-12-29T20:14:15.509Z,1.50
2017-12-29T20:16:43.801Z,1.50
2017-12-29T20:19:12.005Z,1.50
2017-12-29T20:21:40.255Z,1.50
2017-12-29T20:24:08.496Z,1.50
2017-12-29T20:26:36.756Z,1.50
2017-12-29T20:29:05.044Z,1.50
2017-12-29T20:31:34.248Z,1.50
2017-12-29T20:34:02.527Z,1.50
2017-12-29T20:36:30.745Z,1.50
2017-12-29T20:38:59.006Z,1.60
2017-12-29T20:41:27.284Z,1.60
2017-12-29T20:43:55.579Z,1.60
2017-12-29T20:46:23.859Z,1.60
2017-12-29T20:48:53.677Z,1.70
2017-12-29T20:51:23.002Z,1.70
2017-12-29T20:53:51.992Z,1.70
2017-12-29T20:56:21.060Z,1.70
2017-12-29T20:58:49.423Z,1.70
2017-12-29T21:01:18.045Z,1.70
2017-12-29T21:03:46.278Z,1.70
2017-12-29T21:06:15.317Z,1.70
2017-12-29T21:08:45.166Z,1.60
2017-12-29T21:11:13.408Z,1.60
2017-12-29T21:13:41.660Z,1.60
2017-12-29T21:16:09.911Z,1.60
2017-12-29T21:18:38.192Z,1.70
2017-12-29T21:21:06.440Z,1.70
2017-12-29T21:23:34.773Z,1.70
2017-12-29T21:26:03.392Z,1.60
2017-12-29T21:28:32.396Z,1.60
2017-12-29T21:31:00.678Z,1.50
2017-12-29T21:33:28.908Z,1.60
2017-12-29T21:35:57.362Z,1.70
2017-12-29T21:38:25.588Z,1.70
2017-12-29T21:40:54.676Z,1.70
2017-12-29T21:43:23.711Z,1.70
2017-12-29T21:45:52.011Z,1.70
2017-12-29T21:48:20.270Z,1.70
2017-12-29T21:50:49.032Z,1.70
2017-12-29T21:53:17.320Z,1.70
2017-12-29T21:55:45.589Z,1.70
2017-12-29T21:58:14.618Z,1.70
2017-12-29T22:00:43.847Z,1.70
2017-12-29T22:03:12.144Z,1.80
2017-12-29T22:05:40.424Z,1.80
2017-12-29T22:08:09.479Z,1.80
2017-12-29T22:10:38.550Z,1.80
2017-12-29T22:13:06.838Z,1.80
2017-12-29T22:15:35.072Z,1.80
2017-12-29T22:18:04.134Z,1.80
2017-12-29T22:20:33.143Z,1.80
2017-12-29T22:23:02.082Z,1.80
2017-12-29T22:25:30.464Z,1.90
2017-12-29T22:27:59.478Z,1.80
2017-12-29T22:30:27.759Z,1.90
2017-12-29T22:32:56.011Z,1.90
2017-12-29T22:35:24.276Z,1.90
2017-12-29T22:37:52.551Z,2.00
2017-12-29T22:40:21.091Z,2.00
2017-12-29T22:42:49.855Z,2.10
2017-12-29T22:45:18.116Z,2.10
2017-12-29T22:47:47.156Z,2.10
2017-12-29T22:50:15.402Z,2.10
2017-12-29T22:52:43.694Z,2.10
2017-12-29T22:55:11.971Z,2.10
2017-12-29T22:57:40.269Z,2.20
2017-12-29T23:00:09.454Z,2.20
2017-12-29T23:02:37.736Z,2.20
2017-12-29T23:05:06.035Z,2.20
2017-12-29T23:07:34.294Z,2.20
2017-12-29T23:10:02.584Z,2.20
2017-12-29T23:12:30.807Z,2.20
2017-12-29T23:14:59.134Z,2.30
2017-12-29T23:17:27.416Z,2.30
2017-12-29T23:19:55.654Z,2.40
2017-12-29T23:22:23.893Z,2.40
2017-12-29T23:24:52.180Z,2.40
2017-12-29T23:27:20.493Z,2.40
2017-12-29T23:29:48.744Z,2.40
2017-12-29T23:32:17.079Z,2.40
2017-12-29T23:34:45.373Z,2.40
2017-12-29T23:37:14.379Z,2.40
2017-12-29T23:39:42.627Z,2.40
2017-12-29T23:42:10.908Z,2.50
2017-12-29T23:44:39.210Z,2.50
2017-12-29T23:47:08.271Z,2.50
2017-12-29T23:49:36.556Z,2.50
2017-12-29T23:52:05.595Z,2.50
2017-12-29T23:54:33.840Z,2.50
2017-12-29T23:57:02.894Z,2.50
2017-12-29T23:59:31.112Z,2.50
